North Canton, Ohio
Current Conditions -  °F | °C
As of 8:51 AM on Monday 26 Jan 2015 (Local Time) from KCAK Reporting Station
Light Snow Light Snow  
Wind Chill:   Ceiling: 2500
Heat Index: 20°   Visibility: 1mi
Dew Point: 15°   Wind: 12mph
Humidity: 81%   Direction: 360°N
Pressure: 29.76"   Gusts: NA
Location:  40.88°N, 81.4°W
Report Text: KCAK 261351Z 36010KT 1SM R23/4500VP6000FT -SN OVC025 M07/M09 A2976 RMK AO2 SLP095 VIS 1/2V1 1/2 P0003 T10671094 $
Loading
Personal Weather Stations






























Interactive Weather Map New forecast layout! Learn more

10-Day Weather Forecast

Advertisements
Track Severe Weather on mobile